Time;durP1;ratioP1;P1;durP2;ratioP2;P2;SDS_P1;SDS_P2;PMS_P1;PMS_P2;Temp;Humidity;BMP_temperature;BMP_pressure;BME280_temperature;BME280_humidity;BME280_pressure;Samples;Min_cycle;Max_cycle;Signal;HPM_P1;HPM_P2
2023/06/23 00:01:39;;;;;;;1.23;0.90;;;20.30;96.70;;;;;;5024713;28;20653;-68
2023/06/23 00:04:06;;;;;;;0.80;0.80;;;20.40;97.40;;;;;;5040521;27;20631;-68
2023/06/23 00:06:33;;;;;;;0.60;0.60;;;20.30;97.00;;;;;;5063348;27;21056;-68
2023/06/23 00:09:01;;;;;;;0.93;0.80;;;20.40;97.30;;;;;;5069131;27;20644;-68
2023/06/23 00:11:28;;;;;;;0.43;0.43;;;20.50;97.70;;;;;;5019717;28;20881;-69
2023/06/23 00:13:56;;;;;;;11.23;0.93;;;20.30;98.40;;;;;;5023394;27;20639;-69
2023/06/23 00:16:23;;;;;;;0.80;0.80;;;20.20;98.90;;;;;;5031180;27;20660;-69
2023/06/23 00:18:50;;;;;;;0.90;0.90;;;20.10;98.80;;;;;;5061626;27;20741;-69
2023/06/23 00:21:19;;;;;;;0.70;0.70;;;20.00;99.90;;;;;;5074889;27;20738;-69
2023/06/23 00:23:46;;;;;;;0.83;0.70;;;20.00;99.90;;;;;;5054538;27;21218;-69
2023/06/23 00:26:13;;;;;;;3.53;1.93;;;20.00;99.90;;;;;;5047703;27;20700;-69
2023/06/23 00:28:40;;;;;;;0.97;0.80;;;20.00;99.90;;;;;;5040967;27;20633;-69
2023/06/23 00:31:08;;;;;;;1.07;1.00;;;20.00;99.90;;;;;;5072975;27;20680;-68
2023/06/23 00:33:35;;;;;;;1.20;0.83;;;19.80;99.90;;;;;;5032814;28;20732;-69
2023/06/23 00:36:02;;;;;;;0.77;0.77;;;19.70;99.90;;;;;;5054102;27;20657;-69
2023/06/23 00:38:28;;;;;;;1.30;1.20;;;19.60;99.90;;;;;;5095180;27;20634;-69
2023/06/23 00:40:55;;;;;;;0.87;0.73;;;19.60;99.90;;;;;;5024932;27;20663;-69
2023/06/23 00:43:22;;;;;;;2.10;1.37;;;19.60;99.90;;;;;;5034954;28;20629;-69
2023/06/23 00:45:49;;;;;;;0.77;0.60;;;19.50;99.90;;;;;;5055369;27;20662;-69
2023/06/23 00:48:17;;;;;;;1.53;1.43;;;19.60;99.90;;;;;;5081596;27;21179;-69
2023/06/23 00:50:45;;;;;;;0.73;0.73;;;19.70;99.90;;;;;;5060505;27;20670;-69
2023/06/23 00:53:13;;;;;;;1.07;1.07;;;19.80;99.90;;;;;;5042103;27;20747;-69
2023/06/23 00:55:40;;;;;;;1.30;1.13;;;19.70;99.90;;;;;;5040864;27;20655;-69
2023/06/23 00:58:08;;;;;;;0.93;0.80;;;19.80;99.90;;;;;;5076713;27;20615;-69
2023/06/23 01:00:35;;;;;;;1.00;1.00;;;19.70;99.90;;;;;;5029308;28;20665;-68
2023/06/23 01:03:03;;;;;;;1.50;1.33;;;19.70;99.90;;;;;;5074125;27;20655;-69
2023/06/23 01:05:35;;;;;;;1.00;1.00;;;19.60;99.90;;;;;;5031170;27;20679;-69
2023/06/23 01:08:16;;;;;;;0.70;0.60;;;19.60;99.90;;;;;;5068713;27;21107;-69
2023/06/23 01:10:47;;;;;;;1.20;1.10;;;19.60;99.90;;;;;;5021404;28;20663;-69
2023/06/23 01:13:20;;;;;;;1.63;0.90;;;19.50;99.90;;;;;;5024142;27;20705;-69
2023/06/23 01:15:54;;;;;;;0.93;0.93;;;19.30;99.90;;;;;;5014029;28;21058;-69
2023/06/23 01:18:29;;;;;;;0.97;0.97;;;19.20;99.90;;;;;;5074643;27;20976;-69
2023/06/23 01:21:02;;;;;;;1.20;1.00;;;19.10;99.90;;;;;;5022405;28;21128;-69
2023/06/23 01:23:45;;;;;;;0.90;0.73;;;19.00;99.90;;;;;;5049661;27;20619;-70
2023/06/23 01:26:32;;;;;;;1.50;1.40;;;18.80;99.90;;;;;;5053370;27;20665;-69
2023/06/23 01:29:07;;;;;;;1.40;1.30;;;18.70;99.90;;;;;;5015101;28;20633;-68
2023/06/23 01:31:40;;;;;;;1.23;1.20;;;18.60;99.90;;;;;;5024861;28;20672;-69
2023/06/23 01:34:10;;;;;;;1.43;1.30;;;18.60;99.90;;;;;;5026617;28;20650;-69
2023/06/23 01:36:41;;;;;;;1.20;1.10;;;18.30;99.90;;;;;;5073520;27;20654;-69
2023/06/23 01:39:15;;;;;;;1.73;1.60;;;18.10;99.90;;;;;;5045246;27;20736;-69
2023/06/23 01:41:59;;;;;;;1.50;1.40;;;17.90;99.90;;;;;;5044946;27;21247;-69
2023/06/23 01:44:30;;;;;;;1.37;1.27;;;17.70;99.90;;;;;;5024676;28;20640;-69
2023/06/23 01:47:02;;;;;;;2.67;1.83;;;17.70;99.90;;;;;;5076356;27;20655;-69
2023/06/23 01:49:36;;;;;;;1.70;1.60;;;17.60;99.90;;;;;;5080600;27;21193;-69
2023/06/23 01:52:06;;;;;;;1.97;1.80;;;17.60;99.90;;;;;;5074274;27;21330;-69
2023/06/23 01:54:37;;;;;;;3.00;1.90;;;17.50;99.90;;;;;;5027917;28;20654;-69
2023/06/23 01:57:07;;;;;;;1.80;1.70;;;17.50;99.90;;;;;;5036328;27;21286;-69
2023/06/23 01:59:37;;;;;;;2.23;1.77;;;17.50;99.90;;;;;;5070047;27;20958;-69
2023/06/23 02:02:07;;;;;;;1.90;1.70;;;17.40;99.90;;;;;;5044889;27;21255;-69
2023/06/23 02:04:36;;;;;;;1.63;1.47;;;17.40;99.90;;;;;;5026015;28;20632;-69
2023/06/23 02:07:03;;;;;;;2.50;2.30;;;17.40;99.90;;;;;;5066212;27;20693;-69
2023/06/23 02:09:32;;;;;;;1.60;1.40;;;17.30;99.90;;;;;;5067370;27;20628;-69
2023/06/23 02:12:03;;;;;;;1.83;1.40;;;17.30;99.90;;;;;;5078666;27;20679;-69
2023/06/23 02:14:31;;;;;;;3.20;3.00;;;17.40;99.90;;;;;;5078255;27;20610;-69
2023/06/23 02:17:00;;;;;;;1.90;1.47;;;17.40;99.90;;;;;;5024189;28;20643;-69
2023/06/23 02:19:28;;;;;;;1.40;1.20;;;17.30;99.90;;;;;;5080680;27;20730;-69
2023/06/23 02:21:57;;;;;;;1.10;1.00;;;17.30;99.90;;;;;;5029785;27;20646;-69
2023/06/23 02:24:25;;;;;;;0.80;0.80;;;17.30;99.90;;;;;;5072803;27;20603;-69
2023/06/23 02:26:54;;;;;;;1.47;0.90;;;17.40;99.90;;;;;;5050380;27;20634;-69
2023/06/23 02:29:22;;;;;;;1.00;0.77;;;17.20;99.90;;;;;;5070259;27;20627;-69
2023/06/23 02:31:51;;;;;;;1.50;1.30;;;17.10;99.90;;;;;;5049856;27;20727;-69
2023/06/23 02:34:20;;;;;;;1.63;1.10;;;17.10;99.90;;;;;;5064236;27;20639;-69
2023/06/23 02:36:52;;;;;;;1.93;1.70;;;17.00;99.90;;;;;;5048087;27;20650;-69
2023/06/23 02:39:20;;;;;;;1.27;1.17;;;17.00;99.90;;;;;;5091589;27;20660;-69
2023/06/23 02:41:54;;;;;;;1.37;1.27;;;17.00;99.90;;;;;;5031238;27;20660;-69
2023/06/23 02:44:30;;;;;;;1.40;1.30;;;16.90;99.90;;;;;;5034772;28;20991;-69
2023/06/23 02:46:58;;;;;;;2.77;1.97;;;17.00;99.90;;;;;;5034829;27;20655;-69
2023/06/23 02:49:30;;;;;;;1.60;1.50;;;17.00;99.90;;;;;;5048545;27;20651;-69
2023/06/23 02:52:00;;;;;;;2.53;1.57;;;17.00;99.90;;;;;;5062998;27;21062;-69
2023/06/23 02:54:31;;;;;;;2.30;1.80;;;16.90;99.90;;;;;;5079849;27;20969;-69
2023/06/23 02:57:01;;;;;;;2.17;1.90;;;16.90;99.90;;;;;;5072559;28;20655;-69
2023/06/23 02:59:30;;;;;;;2.60;2.40;;;16.90;99.90;;;;;;5023326;28;20623;-69
2023/06/23 03:02:00;;;;;;;4.77;2.60;;;17.00;99.90;;;;;;5072148;28;20681;-69
2023/06/23 03:04:30;;;;;;;3.63;2.23;;;16.90;99.90;;;;;;5026565;28;20990;-69
2023/06/23 03:06:57;;;;;;;4.07;2.67;;;17.00;99.90;;;;;;5036432;28;20694;-69
2023/06/23 03:09:26;;;;;;;3.57;2.63;;;17.10;99.90;;;;;;5066183;28;21007;-69
2023/06/23 03:11:54;;;;;;;2.77;2.23;;;17.10;99.90;;;;;;5044026;27;20659;-69
2023/06/23 03:14:22;;;;;;;2.47;2.13;;;17.10;99.90;;;;;;5033014;28;20723;-69
2023/06/23 03:16:53;;;;;;;3.00;2.30;;;17.10;99.90;;;;;;5028233;28;20654;-69
2023/06/23 03:19:30;;;;;;;3.00;2.70;;;17.10;99.90;;;;;;5033949;28;20638;-69
2023/06/23 03:22:05;;;;;;;2.77;2.57;;;17.00;99.90;;;;;;5047947;28;20642;-69
2023/06/23 03:24:38;;;;;;;4.43;3.20;;;17.00;99.90;;;;;;5075760;28;20615;-69
2023/06/23 03:27:08;;;;;;;3.23;2.93;;;17.00;99.90;;;;;;5055507;27;20655;-69
2023/06/23 03:29:39;;;;;;;2.90;2.43;;;17.10;99.90;;;;;;5053131;27;20619;-69
2023/06/23 03:32:08;;;;;;;3.57;2.30;;;17.00;99.90;;;;;;5080591;28;21203;-69
2023/06/23 03:34:41;;;;;;;4.40;2.90;;;17.10;99.90;;;;;;5030798;28;20651;-69
2023/06/23 03:37:12;;;;;;;2.70;2.50;;;17.20;99.90;;;;;;5044459;28;20670;-69
2023/06/23 03:39:41;;;;;;;3.70;2.83;;;17.20;99.90;;;;;;5043905;28;20695;-69
2023/06/23 03:42:09;;;;;;;3.20;2.90;;;17.20;99.90;;;;;;5058756;28;21211;-69
2023/06/23 03:44:40;;;;;;;3.30;3.00;;;17.20;99.90;;;;;;5019677;28;20701;-69
2023/06/23 03:47:13;;;;;;;4.33;3.93;;;17.20;99.90;;;;;;5061110;28;20659;-69
2023/06/23 03:49:45;;;;;;;3.67;3.30;;;17.30;99.90;;;;;;5047760;28;20624;-69
2023/06/23 03:52:15;;;;;;;4.33;3.40;;;17.20;99.90;;;;;;5051035;28;20762;-69
2023/06/23 03:54:43;;;;;;;3.50;3.10;;;17.20;99.90;;;;;;5086184;28;21190;-69
2023/06/23 03:57:16;;;;;;;4.90;3.43;;;17.30;99.90;;;;;;5035142;28;20662;-69
2023/06/23 03:59:44;;;;;;;3.70;3.40;;;17.40;99.90;;;;;;5029080;28;20646;-69
2023/06/23 04:02:14;;;;;;;5.67;3.10;;;17.50;99.90;;;;;;5063173;28;20659;-69
2023/06/23 04:04:43;;;;;;;6.17;4.60;;;17.40;99.90;;;;;;5067923;27;20630;-69
2023/06/23 04:07:12;;;;;;;4.70;3.13;;;17.40;99.90;;;;;;5041020;28;20668;-69
2023/06/23 04:09:41;;;;;;;3.47;3.17;;;17.50;99.90;;;;;;5043956;27;20655;-69
2023/06/23 04:12:11;;;;;;;4.17;3.60;;;17.50;99.90;;;;;;5041140;27;20668;-69
2023/06/23 04:14:39;;;;;;;3.47;3.17;;;17.40;99.90;;;;;;5048313;27;20623;-69
2023/06/23 04:17:08;;;;;;;6.37;4.60;;;17.40;99.90;;;;;;5062424;27;20765;-69
2023/06/23 04:19:37;;;;;;;6.10;4.50;;;17.50;99.90;;;;;;5050634;27;20629;-68
2023/06/23 04:22:07;;;;;;;5.30;4.77;;;17.50;99.90;;;;;;5028082;28;20651;-68
2023/06/23 04:24:36;;;;;;;4.40;3.97;;;17.50;99.90;;;;;;5020215;28;20624;-69
2023/06/23 04:27:05;;;;;;;5.57;4.53;;;17.50;99.90;;;;;;5044970;27;20699;-69
2023/06/23 04:29:36;;;;;;;4.90;3.70;;;17.50;99.90;;;;;;5078298;27;20627;-68
2023/06/23 04:32:03;;;;;;;4.20;3.70;;;17.50;99.90;;;;;;5028146;28;21017;-69
2023/06/23 04:34:30;;;;;;;5.13;3.90;;;17.50;99.90;;;;;;5032895;27;20619;-69
2023/06/23 04:37:04;;;;;;;7.83;5.47;;;17.50;99.90;;;;;;5071330;27;20655;-69
2023/06/23 04:39:40;;;;;;;3.90;3.60;;;17.60;99.90;;;;;;5074062;27;20757;-68
2023/06/23 04:42:10;;;;;;;4.30;3.80;;;17.60;99.90;;;;;;5031954;28;20652;-70
2023/06/23 04:44:44;;;;;;;3.90;3.60;;;17.60;99.90;;;;;;5024864;28;20625;-69
2023/06/23 04:47:13;;;;;;;5.03;4.53;;;17.50;99.90;;;;;;5083775;27;20996;-68
2023/06/23 04:49:41;;;;;;;5.47;4.97;;;17.50;99.90;;;;;;5075177;27;20647;-68
2023/06/23 04:52:10;;;;;;;6.07;5.47;;;17.50;99.90;;;;;;5029384;28;20681;-68
2023/06/23 04:54:44;;;;;;;6.60;4.50;;;17.60;99.90;;;;;;5059613;27;21215;-68
2023/06/23 04:57:15;;;;;;;4.73;4.13;;;17.60;99.90;;;;;;5056200;27;20663;-69
2023/06/23 04:59:47;;;;;;;5.30;4.40;;;17.70;99.90;;;;;;5057101;27;20626;-69
2023/06/23 05:02:15;;;;;;;6.27;5.10;;;17.70;99.90;;;;;;5071560;27;21031;-68
2023/06/23 05:04:44;;;;;;;4.07;3.63;;;17.60;99.90;;;;;;5049799;27;20635;-68
2023/06/23 05:07:14;;;;;;;5.70;4.70;;;17.60;99.90;;;;;;5036261;28;20661;-69
2023/06/23 05:09:45;;;;;;;6.00;4.70;;;17.50;99.90;;;;;;5050812;27;20685;-70
2023/06/23 05:12:14;;;;;;;6.87;5.03;;;17.60;99.90;;;;;;5094810;27;20669;-69
2023/06/23 05:14:42;;;;;;;5.93;5.30;;;17.80;99.90;;;;;;5045422;27;21055;-69
2023/06/23 05:17:11;;;;;;;9.90;6.00;;;17.80;99.90;;;;;;5054511;27;21292;-70
2023/06/23 05:19:40;;;;;;;6.63;5.90;;;18.00;99.90;;;;;;5012526;28;20639;-70
2023/06/23 05:22:10;;;;;;;6.73;6.03;;;17.80;99.90;;;;;;5077990;27;20655;-71
2023/06/23 05:24:39;;;;;;;6.83;5.47;;;17.80;99.90;;;;;;5077810;27;20636;-71
2023/06/23 05:27:08;;;;;;;6.17;5.67;;;17.80;99.90;;;;;;5059469;27;20770;-70
2023/06/23 05:29:38;;;;;;;6.37;5.77;;;17.70;99.90;;;;;;5032628;27;20640;-71
2023/06/23 05:32:08;;;;;;;5.17;4.53;;;17.90;99.90;;;;;;5048350;27;20769;-69
2023/06/23 05:34:36;;;;;;;7.40;5.90;;;17.90;99.90;;;;;;5073913;27;20633;-71
2023/06/23 05:37:04;;;;;;;5.90;4.77;;;18.00;99.90;;;;;;5072320;27;20711;-69
2023/06/23 05:39:34;;;;;;;6.77;6.07;;;18.00;99.90;;;;;;5095845;27;20624;-70
2023/06/23 05:42:01;;;;;;;8.10;6.40;;;18.00;99.90;;;;;;5077606;27;20647;-70
2023/06/23 05:44:30;;;;;;;9.00;6.80;;;17.90;99.90;;;;;;5049260;27;20727;-69
2023/06/23 05:46:59;;;;;;;6.83;6.13;;;17.90;99.90;;;;;;5037990;28;20651;-69
2023/06/23 05:49:28;;;;;;;6.20;5.33;;;17.90;99.90;;;;;;5091558;27;20615;-69
2023/06/23 05:51:57;;;;;;;7.80;5.60;;;17.80;99.90;;;;;;5065227;27;20655;-70
2023/06/23 05:54:26;;;;;;;9.83;7.03;;;17.90;99.90;;;;;;5042956;27;21065;-69
2023/06/23 05:56:58;;;;;;;6.10;5.50;;;17.80;99.90;;;;;;5075563;27;20643;-69
2023/06/23 05:59:28;;;;;;;9.83;6.97;;;17.90;99.90;;;;;;5047893;27;21473;-69
2023/06/23 06:01:59;;;;;;;8.40;6.50;;;18.00;99.90;;;;;;5075406;27;21088;-70
2023/06/23 06:04:30;;;;;;;7.50;6.77;;;17.90;99.90;;;;;;5090472;27;20631;-70
2023/06/23 06:06:59;;;;;;;6.43;5.83;;;18.00;99.90;;;;;;5093353;27;20639;-69
2023/06/23 06:09:28;;;;;;;8.10;7.30;;;18.10;99.90;;;;;;5045695;27;20710;-69
2023/06/23 06:11:57;;;;;;;7.47;6.40;;;18.10;99.90;;;;;;5093766;27;20642;-69
2023/06/23 06:14:26;;;;;;;7.40;6.60;;;18.20;99.90;;;;;;5089377;27;20615;-70
2023/06/23 06:16:53;;;;;;;6.50;5.90;;;18.30;99.90;;;;;;5080491;27;20650;-69
2023/06/23 06:19:23;;;;;;;6.97;6.00;;;18.20;99.90;;;;;;5078711;27;20650;-69
2023/06/23 06:21:52;;;;;;;6.70;6.07;;;18.30;99.90;;;;;;5049552;27;20643;-70
2023/06/23 06:24:20;;;;;;;10.57;5.90;;;18.40;99.90;;;;;;5102783;27;20627;-69
2023/06/23 06:26:48;;;;;;;7.30;5.37;;;18.40;99.90;;;;;;5082079;27;20654;-70
2023/06/23 06:29:19;;;;;;;8.97;6.33;;;18.40;99.90;;;;;;5079846;27;21183;-69
2023/06/23 06:31:48;;;;;;;8.63;6.70;;;18.60;99.90;;;;;;5084367;27;20796;-70
2023/06/23 06:34:16;;;;;;;10.90;5.70;;;18.70;99.90;;;;;;5106496;27;21325;-70
2023/06/23 06:36:46;;;;;;;6.50;5.90;;;18.80;99.90;;;;;;5081170;27;20651;-70
2023/06/23 06:39:13;;;;;;;8.63;5.40;;;18.70;99.30;;;;;;5079249;27;20623;-69
2023/06/23 06:41:43;;;;;;;7.83;6.10;;;18.70;98.90;;;;;;5046998;27;20754;-69
2023/06/23 06:44:09;;;;;;;8.00;5.90;;;18.80;98.70;;;;;;5079323;27;20623;-69
2023/06/23 06:46:38;;;;;;;11.90;6.87;;;18.90;98.90;;;;;;5042051;28;20643;-70
2023/06/23 06:49:05;;;;;;;7.57;5.50;;;19.00;98.60;;;;;;5086704;27;20623;-69
2023/06/23 06:51:33;;;;;;;6.70;5.97;;;19.30;98.40;;;;;;5082608;27;20648;-69
2023/06/23 06:54:01;;;;;;;7.30;5.77;;;19.50;98.70;;;;;;5077330;27;21062;-69
2023/06/23 06:56:29;;;;;;;7.33;6.10;;;19.50;98.40;;;;;;5091114;28;20667;-70
2023/06/23 06:58:56;;;;;;;6.43;5.10;;;19.50;97.50;;;;;;5035057;28;20621;-69
2023/06/23 07:01:24;;;;;;;7.33;5.20;;;19.60;97.60;;;;;;5078237;28;21148;-69
2023/06/23 07:03:52;;;;;;;7.73;6.03;;;19.80;97.90;;;;;;5079434;28;20650;-70
2023/06/23 07:06:19;;;;;;;7.87;6.00;;;19.80;96.90;;;;;;5085782;28;21078;-70
2023/06/23 07:08:46;;;;;;;6.03;5.43;;;19.60;96.60;;;;;;5092161;28;20976;-70
2023/06/23 07:11:14;;;;;;;9.20;6.07;;;19.70;97.50;;;;;;5068364;28;20684;-70
2023/06/23 07:13:41;;;;;;;7.07;6.30;;;19.70;96.60;;;;;;5051095;28;20667;-70
2023/06/23 07:16:07;;;;;;;10.87;7.63;;;19.70;96.60;;;;;;5092957;28;20649;-70
2023/06/23 07:18:34;;;;;;;8.50;6.67;;;19.60;96.10;;;;;;5084596;28;20714;-70
2023/06/23 07:21:03;;;;;;;6.57;5.97;;;19.60;96.60;;;;;;5078165;28;20689;-70
2023/06/23 07:23:29;;;;;;;7.53;5.67;;;19.50;96.50;;;;;;5070898;27;20632;-70
2023/06/23 07:25:57;;;;;;;6.43;5.37;;;19.40;96.80;;;;;;5059209;28;20653;-69
2023/06/23 07:28:25;;;;;;;5.13;4.63;;;19.40;96.50;;;;;;5072966;28;20714;-70
2023/06/23 07:30:52;;;;;;;10.07;5.97;;;19.30;95.70;;;;;;5078346;28;20750;-70
2023/06/23 07:33:19;;;;;;;8.60;6.00;;;19.30;96.10;;;;;;5079338;28;20761;-70
2023/06/23 07:35:46;;;;;;;5.97;5.40;;;19.10;95.80;;;;;;5070219;28;20787;-70
2023/06/23 07:38:13;;;;;;;5.53;4.67;;;19.20;96.60;;;;;;5078912;28;20643;-69
2023/06/23 07:40:39;;;;;;;8.10;4.93;;;19.20;96.10;;;;;;5078195;27;20647;-70
2023/06/23 07:43:06;;;;;;;5.77;5.10;;;19.30;96.40;;;;;;5044853;27;20615;-70
2023/06/23 07:45:34;;;;;;;6.67;5.97;;;19.50;95.40;;;;;;5082702;27;20653;-70
2023/06/23 07:48:01;;;;;;;5.50;4.67;;;19.60;95.30;;;;;;5085433;27;20631;-70
2023/06/23 07:50:28;;;;;;;9.03;5.23;;;19.70;95.60;;;;;;5081786;27;20642;-70
2023/06/23 07:52:55;;;;;;;6.10;5.00;;;19.70;94.80;;;;;;5055465;27;20676;-69
2023/06/23 07:55:22;;;;;;;7.57;5.03;;;19.90;94.70;;;;;;5045153;27;20742;-69
2023/06/23 07:57:49;;;;;;;5.17;4.33;;;19.90;94.70;;;;;;5087008;27;20625;-70
2023/06/23 08:00:17;;;;;;;7.50;5.23;;;20.20;95.00;;;;;;5038065;28;21028;-70
2023/06/23 08:02:45;;;;;;;4.43;3.97;;;20.30;94.90;;;;;;5082978;27;20622;-70
2023/06/23 08:05:12;;;;;;;5.33;4.83;;;20.30;93.80;;;;;;5084685;27;20627;-69
2023/06/23 08:07:39;;;;;;;4.53;4.03;;;20.20;93.80;;;;;;5094468;27;20611;-69
2023/06/23 08:10:06;;;;;;;5.83;4.40;;;20.00;94.30;;;;;;5095554;27;21085;-69
2023/06/23 08:12:35;;;;;;;6.20;5.17;;;20.10;94.00;;;;;;5091106;27;20622;-70
2023/06/23 08:15:02;;;;;;;5.47;4.10;;;20.00;93.20;;;;;;5063930;27;20623;-70
2023/06/23 08:17:29;;;;;;;4.80;3.93;;;20.10;93.70;;;;;;5087505;27;20700;-70
2023/06/23 08:19:57;;;;;;;5.60;4.60;;;20.20;93.60;;;;;;5094548;27;21189;-69
2023/06/23 08:22:24;;;;;;;4.63;4.17;;;20.10;93.30;;;;;;5095521;27;20647;-70
2023/06/23 08:24:51;;;;;;;4.87;4.37;;;20.20;93.70;;;;;;5083519;27;20624;-70
2023/06/23 08:27:18;;;;;;;6.20;4.83;;;20.30;93.90;;;;;;5101558;27;20786;-70
2023/06/23 08:29:45;;;;;;;4.10;3.53;;;20.20;93.30;;;;;;5077286;27;20620;-70
2023/06/23 08:32:12;;;;;;;3.93;3.40;;;20.10;93.30;;;;;;5037855;27;20655;-70
2023/06/23 08:34:39;;;;;;;4.90;3.73;;;20.00;93.60;;;;;;5027452;27;20664;-70
2023/06/23 08:37:07;;;;;;;3.93;3.63;;;19.90;93.70;;;;;;5025340;28;21210;-69
2023/06/23 08:39:34;;;;;;;4.37;3.97;;;19.90;93.60;;;;;;5032289;28;20661;-70
2023/06/23 08:42:01;;;;;;;5.57;4.43;;;20.10;93.50;;;;;;5067437;27;20670;-70
2023/06/23 08:44:31;;;;;;;6.33;4.83;;;20.00;93.30;;;;;;5047237;27;20732;-70
2023/06/23 08:47:01;;;;;;;5.10;4.60;;;19.90;93.50;;;;;;5030465;28;20652;-70
2023/06/23 08:49:30;;;;;;;5.03;4.50;;;19.80;94.30;;;;;;5080701;27;20626;-70
2023/06/23 08:51:58;;;;;;;7.90;5.10;;;19.90;94.10;;;;;;5035030;27;20652;-70
2023/06/23 08:54:26;;;;;;;6.10;4.87;;;20.00;93.90;;;;;;5064263;27;21089;-69
2023/06/23 08:56:54;;;;;;;6.50;5.03;;;20.30;93.20;;;;;;5023792;28;20745;-70
2023/06/23 08:59:21;;;;;;;4.83;4.43;;;20.30;93.30;;;;;;5055504;27;21066;-69
2023/06/23 09:01:48;;;;;;;4.30;4.00;;;20.20;93.30;;;;;;5081941;27;20657;-70
2023/06/23 09:04:15;;;;;;;5.13;4.63;;;20.00;93.20;;;;;;5047113;27;20629;-70
2023/06/23 09:06:42;;;;;;;4.50;4.10;;;20.40;93.80;;;;;;5023996;27;21083;-69
2023/06/23 09:09:09;;;;;;;4.90;4.50;;;20.80;92.80;;;;;;5029668;28;20619;-68
2023/06/23 09:11:38;;;;;;;5.67;5.10;;;21.00;92.70;;;;;;5039478;28;21035;-69
2023/06/23 09:14:07;;;;;;;4.47;4.07;;;21.30;91.40;;;;;;5034597;28;20672;-69
2023/06/23 09:16:35;;;;;;;4.53;3.63;;;21.40;91.40;;;;;;5025865;28;20663;-69
2023/06/23 09:19:03;;;;;;;4.47;4.07;;;21.50;91.50;;;;;;5050687;27;20627;-70
2023/06/23 09:21:31;;;;;;;4.73;3.90;;;21.60;91.50;;;;;;5038581;27;20659;-69
2023/06/23 09:24:02;;;;;;;5.70;5.07;;;21.50;91.50;;;;;;5042760;28;20834;-69
2023/06/23 09:26:29;;;;;;;5.40;4.30;;;21.60;90.40;;;;;;5029292;27;20687;-69
2023/06/23 09:29:15;;;;;;;5.00;4.50;;;21.90;90.30;;;;;;5043298;27;20711;-69
2023/06/23 09:31:42;;;;;;;5.20;4.00;;;22.00;88.90;;;;;;5061273;27;20674;-69
2023/06/23 09:34:09;;;;;;;4.40;4.00;;;22.10;89.10;;;;;;5031831;28;20646;-69
2023/06/23 09:36:37;;;;;;;5.03;4.63;;;22.30;90.00;;;;;;5054631;27;20651;-69
2023/06/23 09:39:04;;;;;;;4.20;3.77;;;22.10;88.60;;;;;;5018901;28;21045;-69
2023/06/23 09:41:32;;;;;;;5.20;4.27;;;22.00;90.20;;;;;;5046690;27;20656;-69
2023/06/23 09:43:59;;;;;;;4.63;4.23;;;21.70;88.80;;;;;;5062315;27;20954;-69
2023/06/23 09:46:32;;;;;;;4.63;4.20;;;21.60;90.10;;;;;;5063140;27;20662;-69
2023/06/23 09:49:01;;;;;;;6.00;4.90;;;21.80;88.20;;;;;;5068639;27;20617;-69
2023/06/23 09:51:27;;;;;;;4.23;3.40;;;21.90;88.20;;;;;;5078804;27;20963;-69
2023/06/23 09:53:54;;;;;;;4.43;3.93;;;22.20;88.10;;;;;;5036470;28;20669;-69
2023/06/23 09:56:25;;;;;;;4.83;4.23;;;22.60;87.00;;;;;;5051482;27;20657;-69
2023/06/23 09:58:57;;;;;;;3.83;3.53;;;22.90;84.20;;;;;;5052481;27;20636;-68
2023/06/23 10:01:24;;;;;;;4.40;4.00;;;22.70;81.80;;;;;;5041969;27;20643;-69
2023/06/23 10:03:53;;;;;;;4.27;3.80;;;22.60;85.30;;;;;;5021968;28;20632;-69
2023/06/23 10:06:28;;;;;;;4.30;3.87;;;22.40;83.40;;;;;;5025522;28;21097;-69
2023/06/23 10:08:56;;;;;;;3.40;3.20;;;22.30;82.10;;;;;;5079994;27;20663;-68
2023/06/23 10:11:31;;;;;;;3.80;3.43;;;22.60;82.40;;;;;;5085730;27;20650;-68
2023/06/23 10:13:59;;;;;;;3.70;2.93;;;23.00;82.00;;;;;;5050000;27;21219;-69
2023/06/23 10:16:27;;;;;;;3.30;3.00;;;23.00;79.30;;;;;;5042774;27;20764;-69
2023/06/23 10:18:56;;;;;;;3.40;3.10;;;23.20;80.50;;;;;;5063545;27;20625;-68
2023/06/23 10:21:24;;;;;;;3.57;2.87;;;23.50;81.10;;;;;;5082863;27;20978;-68
2023/06/23 10:23:53;;;;;;;3.77;3.37;;;24.10;81.50;;;;;;5042812;27;20626;-69
2023/06/23 10:26:21;;;;;;;3.60;2.70;;;23.90;77.90;;;;;;5053048;27;20642;-69
2023/06/23 10:28:50;;;;;;;3.67;3.23;;;24.40;79.30;;;;;;5089139;27;20627;-68
2023/06/23 10:31:18;;;;;;;4.10;3.80;;;24.60;80.00;;;;;;5060559;27;20659;-69
2023/06/23 10:33:46;;;;;;;3.90;3.27;;;24.60;76.60;;;;;;5085189;27;20674;-69
2023/06/23 10:36:18;;;;;;;4.23;3.80;;;24.30;74.70;;;;;;5114690;27;20738;-69
2023/06/23 10:38:47;;;;;;;3.47;3.13;;;24.10;74.30;;;;;;5088792;27;21421;-69
2023/06/23 10:41:15;;;;;;;3.20;2.90;;;23.90;73.30;;;;;;5077224;27;20642;-69
2023/06/23 10:43:47;;;;;;;3.87;3.57;;;24.10;74.10;;;;;;5068681;27;21206;-69
2023/06/23 10:46:14;;;;;;;3.90;3.60;;;23.50;74.40;;;;;;5043760;27;20642;-68
2023/06/23 10:48:42;;;;;;;3.17;2.87;;;23.20;76.90;;;;;;5093174;27;20619;-69
2023/06/23 10:51:10;;;;;;;4.00;3.33;;;22.70;77.00;;;;;;5075699;27;20654;-69
2023/06/23 10:53:45;;;;;;;4.23;3.57;;;22.50;78.10;;;;;;5032295;27;20627;-69
2023/06/23 10:56:29;;;;;;;9.30;3.93;;;22.60;79.20;;;;;;5061997;28;21123;-69
2023/06/23 10:58:56;;;;;;;3.83;3.47;;;23.10;79.50;;;;;;5027200;28;20624;-68
2023/06/23 11:01:23;;;;;;;3.40;3.10;;;23.40;76.60;;;;;;5031185;28;20651;-69
2023/06/23 11:03:52;;;;;;;2.90;2.70;;;23.80;76.90;;;;;;5052455;28;20623;-69
2023/06/23 11:06:28;;;;;;;4.00;3.50;;;24.20;76.90;;;;;;5048825;28;20653;-69
2023/06/23 11:08:57;;;;;;;2.77;2.57;;;24.00;73.30;;;;;;5062955;28;20623;-69
2023/06/23 11:11:32;;;;;;;4.33;3.50;;;24.00;75.70;;;;;;5076790;28;21030;-70
2023/06/23 11:14:00;;;;;;;3.50;3.20;;;23.70;76.00;;;;;;5024132;28;20667;-70
2023/06/23 11:16:32;;;;;;;3.87;3.50;;;23.70;74.90;;;;;;5072383;28;20699;-70
2023/06/23 11:19:00;;;;;;;3.30;3.10;;;23.50;76.10;;;;;;5039412;27;20643;-69
2023/06/23 11:21:32;;;;;;;3.90;3.43;;;23.10;75.00;;;;;;5033591;27;20752;-70
2023/06/23 11:24:11;;;;;;;3.10;2.90;;;23.40;76.90;;;;;;5024221;28;20630;-70
2023/06/23 11:26:42;;;;;;;3.40;3.10;;;23.70;78.20;;;;;;5032234;28;21224;-70
2023/06/23 11:29:12;;;;;;;5.17;3.53;;;23.50;73.20;;;;;;5057205;27;21265;-70
2023/06/23 11:32:04;;;;;;;5.73;4.00;;;23.30;73.70;;;;;;5036137;28;20662;-71
2023/06/23 11:34:31;;;;;;;4.00;3.23;;;23.10;74.80;;;;;;5031018;28;21163;-71
2023/06/23 11:36:59;;;;;;;5.33;3.40;;;23.40;76.20;;;;;;5076321;27;21314;-71
2023/06/23 11:39:27;;;;;;;4.70;2.90;;;24.10;75.30;;;;;;5021717;28;20643;-72
2023/06/23 11:41:56;;;;;;;3.93;3.57;;;25.00;75.90;;;;;;5049632;27;20642;-73
2023/06/23 11:44:23;;;;;;;3.17;2.87;;;25.80;73.10;;;;;;5029766;28;20629;-72
2023/06/23 11:46:53;;;;;;;3.70;3.40;;;25.90;69.80;;;;;;5039450;27;20669;-72
2023/06/23 11:49:21;;;;;;;3.90;3.60;;;26.20;70.20;;;;;;5046135;27;20618;-72
2023/06/23 11:51:48;;;;;;;2.90;2.70;;;26.20;68.80;;;;;;5049691;27;20761;-72
2023/06/23 11:54:17;;;;;;;4.57;4.10;;;26.00;67.70;;;;;;5031368;28;20665;-72
2023/06/23 11:56:45;;;;;;;3.70;3.40;;;25.50;66.70;;;;;;5028504;28;20678;-72
2023/06/23 11:59:12;;;;;;;3.77;3.13;;;24.90;68.00;;;;;;5080256;27;20650;-72
2023/06/23 12:01:39;;;;;;;3.13;2.93;;;24.40;68.70;;;;;;5031204;27;20712;-72
2023/06/23 12:04:06;;;;;;;2.90;2.70;;;24.70;70.90;;;;;;5050703;27;20721;-72
2023/06/23 12:06:37;;;;;;;3.93;3.63;;;25.60;70.60;;;;;;5039006;27;20781;-69
2023/06/23 12:09:05;;;;;;;3.83;3.50;;;26.80;71.10;;;;;;5067537;27;20632;-70
2023/06/23 12:11:35;;;;;;;2.60;2.40;;;27.40;61.80;;;;;;5064008;27;20661;-69
2023/06/23 12:14:03;;;;;;;3.07;2.87;;;27.30;62.20;;;;;;5034796;28;20635;-69
2023/06/23 12:16:35;;;;;;;3.43;3.13;;;27.90;65.30;;;;;;5032727;27;20660;-69
2023/06/23 12:19:02;;;;;;;5.00;2.87;;;28.50;60.40;;;;;;5081405;27;20627;-68
2023/06/23 12:21:29;;;;;;;3.13;2.87;;;27.40;59.00;;;;;;5040333;27;20750;-69
2023/06/23 12:23:57;;;;;;;4.67;3.20;;;27.00;62.20;;;;;;5023965;27;20619;-69
2023/06/23 12:26:23;;;;;;;2.70;2.37;;;26.50;62.70;;;;;;5021514;28;20648;-69
2023/06/23 12:28:50;;;;;;;3.20;2.90;;;25.60;61.90;;;;;;5049646;28;20722;-68
2023/06/23 12:31:26;;;;;;;2.97;2.67;;;24.60;64.40;;;;;;5047697;27;20675;-70
2023/06/23 12:33:54;;;;;;;2.73;2.53;;;24.10;67.70;;;;;;5040536;27;20626;-69
2023/06/23 12:36:20;;;;;;;3.90;3.20;;;23.70;69.20;;;;;;5066492;27;21142;-72
2023/06/23 12:38:53;;;;;;;3.37;3.07;;;24.00;69.80;;;;;;5088967;27;20637;-70
2023/06/23 12:41:23;;;;;;;3.30;3.00;;;23.80;69.10;;;;;;5075562;27;20682;-70
2023/06/23 12:43:51;;;;;;;3.27;2.97;;;23.90;69.20;;;;;;5040677;27;20641;-72
2023/06/23 12:46:18;;;;;;;3.40;3.10;;;24.80;70.80;;;;;;5094450;27;20738;-72
2023/06/23 12:48:49;;;;;;;3.10;2.67;;;26.20;68.80;;;;;;5043471;27;21174;-70
2023/06/23 12:51:16;;;;;;;3.37;3.07;;;27.30;61.20;;;;;;5028220;28;20662;-70
2023/06/23 12:53:43;;;;;;;3.50;3.20;;;28.40;63.90;;;;;;5036270;28;20627;-70
2023/06/23 12:56:11;;;;;;;3.73;3.13;;;29.10;59.40;;;;;;5088433;27;20681;-70